Terminal Aerodrome Forecast
Issued by NWS Quad Cities IA IL

Home | Current Version | Previous Version | Text Only | Print | Product List | Glossary On
Versions: 1 2 3 4 5 6 7 8 9 10 11 12 13 14 15 16 17 18 19 20
000
FTUS43 KDVN 271811 AAA
TAFMLI
TAF AMD
KMLI 271811Z 2718/2818 29020G28KT P6SM SKC
     FM272300 29011KT P6SM SCT050
     FM280400 32008KT P6SM VCSH SCT025 BKN035
     FM280900 31008KT P6SM -RA OVC025
     FM281400 32012KT P6SM VCSH OVC020=

USA.gov is the U.S. government's official web portal to all federal, state and local government web resources and services.